createdAt,value
2022-12-06T00:02:33.738Z,100075.59
2022-12-06T00:06:50.217Z,100068.63
2022-12-06T00:10:52.083Z,100070.16
2022-12-06T00:14:54.084Z,100064.25
2022-12-06T00:18:58.485Z,100070.88
2022-12-06T00:23:00.480Z,100070.88
2022-12-06T00:27:02.424Z,100068.97
2022-12-06T00:31:09.693Z,100073.00
2022-12-06T00:35:11.616Z,100070.88
2022-12-06T00:39:15.461Z,100071.31
2022-12-06T00:43:17.415Z,100075.25
2022-12-06T00:47:19.282Z,100078.91
2022-12-06T00:51:21.934Z,100074.63
2022-12-06T00:55:23.838Z,100071.91
2022-12-06T00:59:25.781Z,100067.31
2022-12-06T01:03:32.114Z,100086.84
2022-12-06T01:07:36.816Z,100076.94
2022-12-06T01:11:38.622Z,100087.09
2022-12-06T01:15:40.450Z,100091.47
2022-12-06T01:19:43.742Z,100074.38
2022-12-06T01:23:45.964Z,100061.06
2022-12-06T01:27:47.990Z,100056.56
2022-12-06T01:31:49.994Z,100043.09
2022-12-06T01:35:51.893Z,100035.66
2022-12-06T01:39:53.729Z,100029.53
2022-12-06T01:43:56.293Z,100037.19
2022-12-06T01:47:58.093Z,100031.41
2022-12-06T01:52:06.774Z,100033.53
2022-12-06T01:56:08.613Z,100017.38
2022-12-06T02:00:10.998Z,100017.38
2022-12-06T02:04:12.811Z,100005.91
2022-12-06T02:08:14.794Z,99997.44
2022-12-06T02:12:16.703Z,99997.78
2022-12-06T02:16:23.903Z,99993.16
2022-12-06T02:20:39.718Z,99986.00
2022-12-06T02:25:37.294Z,99976.56
2022-12-06T02:30:11.199Z,99988.22
2022-12-06T02:34:28.672Z,99978.31
2022-12-06T02:38:44.772Z,99971.69
2022-12-06T02:42:55.564Z,99976.19
2022-12-06T02:46:57.370Z,99970.53
2022-12-06T02:51:02.787Z,99954.47
2022-12-06T02:55:05.225Z,99960.94
2022-12-06T02:59:07.074Z,99954.94
2022-12-06T03:03:25.190Z,99947.75
2022-12-06T03:07:52.164Z,99958.63
2022-12-06T03:12:11.138Z,99951.66
2022-12-06T03:16:37.289Z,99959.44
2022-12-06T03:20:48.040Z,99972.88
2022-12-06T03:24:50.133Z,99949.75
2022-12-06T03:28:52.951Z,99954.38
2022-12-06T03:32:54.807Z,99954.25
2022-12-06T03:36:56.909Z,99944.31
2022-12-06T03:41:01.457Z,99946.81
2022-12-06T03:45:04.142Z,99935.13
2022-12-06T03:49:21.919Z,99934.88
2022-12-06T03:53:23.814Z,99928.03
2022-12-06T03:57:25.671Z,99921.53
2022-12-06T04:01:27.731Z,99930.50
2022-12-06T04:05:29.715Z,99928.00
2022-12-06T04:09:49.835Z,99920.50
2022-12-06T04:13:51.896Z,99913.28
2022-12-06T04:18:13.877Z,99933.84
2022-12-06T04:22:34.875Z,99924.28
2022-12-06T04:26:36.961Z,99924.53
2022-12-06T04:30:57.651Z,99925.69
2022-12-06T04:35:18.102Z,99912.88
2022-12-06T04:39:21.063Z,99915.81
2022-12-06T04:43:41.764Z,99918.63
2022-12-06T04:47:43.657Z,99914.75
2022-12-06T04:51:45.526Z,99904.72
2022-12-06T04:55:48.037Z,99913.81
2022-12-06T04:59:51.252Z,99914.75
2022-12-06T05:03:53.488Z,99901.91
2022-12-06T05:07:55.340Z,99914.63
2022-12-06T05:11:57.211Z,99903.19
2022-12-06T05:16:02.889Z,99898.13
2022-12-06T05:20:05.967Z,99908.75
2022-12-06T05:24:08.269Z,99914.63
2022-12-06T05:28:10.279Z,99914.38
2022-12-06T05:32:12.217Z,99909.91
2022-12-06T05:36:20.193Z,99899.31
2022-12-06T05:40:22.215Z,99913.69
2022-12-06T05:44:24.065Z,99905.19
2022-12-06T05:48:26.211Z,99900.72
2022-12-06T05:52:28.149Z,99900.94
2022-12-06T05:56:30.082Z,99903.44
2022-12-06T06:00:34.839Z,99909.09
2022-12-06T06:04:39.250Z,99901.91
2022-12-06T06:08:41.197Z,99895.19
2022-12-06T06:12:45.351Z,99902.13
2022-12-06T06:16:47.309Z,99905.06
2022-12-06T06:20:54.901Z,99906.97
2022-12-06T06:24:56.787Z,99898.69
2022-12-06T06:28:59.108Z,99890.09
2022-12-06T06:33:03.739Z,99903.66
2022-12-06T06:37:08.290Z,99895.28
2022-12-06T06:41:12.358Z,99899.06
2022-12-06T06:45:25.192Z,99895.88
2022-12-06T06:49:30.653Z,99900.97
2022-12-06T06:53:32.830Z,99912.88
2022-12-06T06:57:37.065Z,99912.38
2022-12-06T07:01:42.967Z,99906.50
2022-12-06T07:05:47.009Z,99907.94
2022-12-06T07:09:51.813Z,99904.50
2022-12-06T07:13:54.075Z,99898.00
2022-12-06T07:17:56.138Z,99916.97
2022-12-06T07:22:01.623Z,99915.91
2022-12-06T07:26:09.526Z,99925.19
2022-12-06T07:30:16.845Z,99924.00
2022-12-06T07:34:22.263Z,99915.41
2022-12-06T07:38:24.296Z,99920.84
2022-12-06T07:42:52.650Z,99915.91
2022-12-06T07:46:56.042Z,99917.03
2022-12-06T07:51:05.199Z,99909.50
2022-12-06T07:55:10.338Z,99902.34
2022-12-06T07:59:17.868Z,99910.81
2022-12-06T08:03:19.894Z,99907.72
2022-12-06T08:07:22.732Z,99910.31
2022-12-06T08:11:28.834Z,99910.25
2022-12-06T08:15:31.128Z,99916.63
2022-12-06T08:19:35.787Z,99904.81
2022-12-06T08:23:37.869Z,99901.78
2022-12-06T08:27:42.238Z,99901.41
2022-12-06T08:31:47.641Z,99899.50
2022-12-06T08:35:54.734Z,99906.59
2022-12-06T08:40:02.866Z,99906.84
2022-12-06T08:44:08.185Z,99908.72
2022-12-06T08:48:10.255Z,99906.38
2022-12-06T08:52:14.492Z,99902.09
2022-12-06T08:56:19.528Z,99905.19
2022-12-06T09:00:21.771Z,99902.22
2022-12-06T09:04:23.858Z,99903.88
2022-12-06T09:08:25.943Z,99894.00
2022-12-06T09:12:27.981Z,99912.28
2022-12-06T09:16:30.161Z,99894.09
2022-12-06T09:20:32.509Z,99893.66
2022-12-06T09:24:34.402Z,99889.88
2022-12-06T09:28:41.311Z,99898.13
2022-12-06T09:32:43.250Z,99881.81
2022-12-06T09:36:57.624Z,99884.88
2022-12-06T09:41:29.400Z,99882.53
2022-12-06T09:45:59.832Z,99876.16
2022-12-06T09:50:08.708Z,99877.06
2022-12-06T09:54:45.051Z,99866.59
2022-12-06T09:59:20.032Z,99854.44
2022-12-06T10:03:51.003Z,99857.28
2022-12-06T10:08:06.109Z,99844.34
2022-12-06T10:18:10.190Z,99846.81
2022-12-06T10:22:54.385Z,99840.81
2022-12-06T10:27:01.253Z,99843.28
2022-12-06T10:31:48.277Z,99841.72
2022-12-06T10:35:58.911Z,99839.88
2022-12-06T10:40:18.054Z,99827.38
2022-12-06T10:44:24.139Z,99832.56
2022-12-06T10:48:51.670Z,99823.13
2022-12-06T10:53:06.727Z,99823.09
2022-12-06T10:57:19.458Z,99827.81
2022-12-06T11:01:32.068Z,99825.47
2022-12-06T11:06:15.519Z,99828.09
2022-12-06T11:10:29.345Z,99834.09
2022-12-06T11:14:43.310Z,99814.78
2022-12-06T11:18:46.360Z,99806.41
2022-12-06T11:23:08.575Z,99820.56
2022-12-06T11:27:50.183Z,99815.72
2022-12-06T11:32:00.438Z,99813.25
2022-12-06T11:36:05.432Z,99808.31
2022-12-06T11:40:30.867Z,99816.66
2022-12-06T11:44:49.981Z,99801.94
2022-12-06T11:48:52.137Z,99806.06
2022-12-06T11:53:12.655Z,99800.75
2022-12-06T11:57:39.077Z,99801.56
2022-12-06T12:01:48.531Z,99803.56
2022-12-06T12:05:50.622Z,99786.63
2022-12-06T12:10:40.777Z,99782.25
2022-12-06T12:14:50.973Z,99773.09
2022-12-06T12:18:58.244Z,99776.13
2022-12-06T12:23:05.054Z,99774.59
2022-12-06T12:27:34.887Z,99781.44
2022-12-06T12:32:09.803Z,99771.88
2022-12-06T12:36:25.145Z,99771.78
2022-12-06T12:40:35.922Z,99772.47
2022-12-06T12:44:39.255Z,99766.81
2022-12-06T12:48:43.715Z,99761.84
2022-12-06T12:52:45.700Z,99756.59
2022-12-06T12:56:47.913Z,99755.53
2022-12-06T13:00:49.819Z,99757.63
2022-12-06T13:05:17.357Z,99764.72
2022-12-06T13:09:33.134Z,99765.78
2022-12-06T13:13:41.007Z,99764.00
2022-12-06T13:17:45.566Z,99762.25
2022-12-06T13:21:47.438Z,99764.84
2022-12-06T13:26:35.405Z,99762.81
2022-12-06T13:30:37.990Z,99762.59
2022-12-06T13:34:52.289Z,99762.78
2022-12-06T13:38:56.126Z,99752.22
2022-12-06T13:43:01.430Z,99752.56
2022-12-06T13:47:28.274Z,99765.19
2022-12-06T13:51:34.525Z,99758.09
2022-12-06T13:55:36.370Z,99759.44
2022-12-06T13:59:38.947Z,99755.38
2022-12-06T14:03:40.946Z,99762.78
2022-12-06T14:07:42.822Z,99754.53
2022-12-06T14:11:45.040Z,99763.25
2022-12-06T14:15:49.167Z,99753.09
2022-12-06T14:19:50.985Z,99755.03
2022-12-06T14:23:52.945Z,99763.28
2022-12-06T14:28:24.163Z,99753.09
2022-12-06T14:32:42.747Z,99755.13
2022-12-06T14:36:44.579Z,99763.97
2022-12-06T14:41:05.102Z,99761.38
2022-12-06T14:45:13.427Z,99761.84
2022-12-06T14:49:39.503Z,99763.72
2022-12-06T14:53:41.880Z,99752.19
2022-12-06T14:57:54.869Z,99757.09
2022-12-06T15:01:56.851Z,99763.22
2022-12-06T15:06:23.201Z,99770.06
2022-12-06T15:10:32.463Z,99754.53
2022-12-06T15:14:40.492Z,99768.56
2022-12-06T15:18:57.456Z,99757.69
2022-12-06T15:22:59.314Z,99761.09
2022-12-06T15:27:01.443Z,99758.63
2022-12-06T15:31:05.468Z,99761.03
2022-12-06T15:35:12.527Z,99760.22
2022-12-06T15:39:14.405Z,99753.53
2022-12-06T15:43:30.229Z,99756.72
2022-12-06T15:47:32.118Z,99758.69
2022-12-06T15:51:34.059Z,99762.94
2022-12-06T15:55:35.988Z,99760.97
2022-12-06T15:59:37.923Z,99758.03
2022-12-06T16:03:39.978Z,99759.69
2022-12-06T16:07:42.016Z,99756.47
2022-12-06T16:11:44.003Z,99751.69
2022-12-06T16:15:45.988Z,99761.47
2022-12-06T16:20:06.216Z,99764.63
2022-12-06T16:24:14.148Z,99760.59
2022-12-06T16:28:16.808Z,99763.59
2022-12-06T16:32:19.870Z,99787.63
2022-12-06T16:36:26.079Z,99768.69
2022-12-06T16:40:28.555Z,99770.31
2022-12-06T16:44:30.407Z,99761.75
2022-12-06T16:48:33.491Z,99753.06
2022-12-06T16:52:36.773Z,99762.25
2022-12-06T16:56:41.581Z,99760.72
2022-12-06T17:00:48.855Z,99759.44
2022-12-06T17:04:55.089Z,99755.75
2022-12-06T17:09:40.352Z,99760.09
2022-12-06T17:19:07.472Z,99753.00
2022-12-06T17:53:31.340Z,99769.19
2022-12-06T17:57:33.483Z,99765.03
2022-12-06T18:02:14.611Z,99770.69
2022-12-06T18:10:40.044Z,99773.66
2022-12-06T18:14:50.329Z,99769.56
2022-12-06T18:18:58.615Z,99765.28
2022-12-06T18:23:00.599Z,99771.25
2022-12-06T18:31:25.270Z,99768.28
2022-12-06T18:35:36.100Z,99769.03
2022-12-06T18:39:40.884Z,99779.38
2022-12-06T18:43:45.616Z,99782.88
2022-12-06T18:48:27.024Z,99782.72
2022-12-06T18:53:16.062Z,99778.78
2022-12-06T18:57:33.278Z,99782.72
2022-12-06T19:01:45.567Z,99796.50
2022-12-06T19:06:02.439Z,99790.56
2022-12-06T19:10:06.239Z,99785.75
2022-12-06T19:14:10.212Z,99790.63
2022-12-06T19:18:13.552Z,99795.16
2022-12-06T19:22:15.487Z,99779.03
2022-12-06T19:26:17.419Z,99797.75
2022-12-06T19:30:19.477Z,99796.59
2022-12-06T19:39:16.296Z,99789.56
2022-12-06T19:43:42.002Z,99801.19
2022-12-06T19:47:46.790Z,99793.50
2022-12-06T19:51:48.880Z,99795.75
2022-12-06T19:55:51.024Z,99785.91
2022-12-06T19:59:55.329Z,99776.50
2022-12-06T20:03:57.282Z,99786.84
2022-12-06T20:08:00.609Z,99800.69
2022-12-06T20:12:04.053Z,99791.78
2022-12-06T20:16:06.679Z,99790.97
2022-12-06T20:20:09.137Z,99790.84
2022-12-06T20:24:12.221Z,99788.91
2022-12-06T20:28:14.314Z,99778.75
2022-12-06T20:32:16.245Z,99794.31
2022-12-06T20:36:21.924Z,99769.88
2022-12-06T20:40:29.791Z,99772.34
2022-12-06T20:44:33.915Z,99773.28
2022-12-06T20:48:36.712Z,99786.16
2022-12-06T20:52:38.635Z,99764.84
2022-12-06T20:56:40.812Z,99780.13
2022-12-06T21:00:45.035Z,99769.66
2022-12-06T21:04:46.975Z,99772.22
2022-12-06T21:08:52.267Z,99775.97
2022-12-06T21:12:54.146Z,99778.91
2022-12-06T21:16:55.941Z,99781.69
2022-12-06T21:20:58.651Z,99770.84
2022-12-06T21:25:00.526Z,99770.16
2022-12-06T21:29:02.531Z,99785.41
2022-12-06T21:33:05.535Z,99781.03
2022-12-06T21:37:07.986Z,99778.22
2022-12-06T21:41:12.756Z,99770.88
2022-12-06T21:45:14.708Z,99778.91
2022-12-06T21:49:16.591Z,99780.72
2022-12-06T21:53:19.702Z,99785.56
2022-12-06T21:57:21.649Z,99773.03
2022-12-06T22:01:26.036Z,99782.22
2022-12-06T22:05:27.903Z,99770.84
2022-12-06T22:09:29.802Z,99771.00
2022-12-06T22:13:31.807Z,99776.59
2022-12-06T22:17:33.616Z,99778.41
2022-12-06T22:21:35.843Z,99763.00
2022-12-06T22:25:40.751Z,99757.41
2022-12-06T22:29:42.795Z,99760.81
2022-12-06T22:33:44.804Z,99761.69
2022-12-06T22:37:46.672Z,99764.97
2022-12-06T22:41:49.727Z,99772.66
2022-12-06T22:45:51.759Z,99767.47
2022-12-06T22:49:53.594Z,99774.66
2022-12-06T22:53:58.025Z,99763.81
2022-12-06T22:58:00.049Z,99771.94
2022-12-06T23:02:02.000Z,99763.50
2022-12-06T23:06:04.377Z,99757.28
2022-12-06T23:10:07.381Z,99761.31
2022-12-06T23:14:09.378Z,99754.06
2022-12-06T23:18:11.155Z,99757.41
2022-12-06T23:22:12.994Z,99759.25
2022-12-06T23:26:20.577Z,99756.69
2022-12-06T23:30:22.435Z,99761.06
2022-12-06T23:34:26.528Z,99754.66
2022-12-06T23:38:31.153Z,99741.06
2022-12-06T23:42:32.953Z,99752.91
2022-12-06T23:46:36.987Z,99753.13
2022-12-06T23:50:38.952Z,99756.19
2022-12-06T23:54:40.761Z,99750.53
2022-12-06T23:58:43.372Z,99748.41
